Terminal Aerodrome Forecast
Issued by NWS

Home | Current Version | Previous Version | Text Only | Print | Product List | Glossary Off
Versions: 1 2 3 4 5 6 7 8 9 10 11 12 13 14 15 16 17 18 19

033
FTUS43 KBIS 231310 AAA
TAFDIK
TAF AMD
KDIK 231310Z 2313/2412 09015G24KT P6SM OVC004
      TEMPO 2313/2315 4SM BR
     FM231500 09016G25KT P6SM OVC008
     FM231700 10016G24KT P6SM OVC010
     FM232200 10015G23KT P6SM OVC030
     FM240700 08011KT P6SM OVC003=

USA.gov is the U.S. government's official web portal to all federal, state and local government web resources and services.